sensor_id;sensor_type;location;lat;lon;timestamp;pressure;altitude;pressure_sealevel;temperature;humidity
26487;BME280;14425;56.136;40.360;2023-04-24T00:02:13;99584.31;;;10.79;45.99
26487;BME280;14425;56.136;40.360;2023-04-24T00:04:39;99582.50;;;10.77;46.36
26487;BME280;14425;56.136;40.360;2023-04-24T00:07:06;99583.19;;;10.71;46.54
26487;BME280;14425;56.136;40.360;2023-04-24T00:09:33;99589.97;;;10.69;46.53
26487;BME280;14425;56.136;40.360;2023-04-24T00:11:58;99587.50;;;10.72;46.27
26487;BME280;14425;56.136;40.360;2023-04-24T00:14:25;99594.53;;;10.76;46.41
26487;BME280;14425;56.136;40.360;2023-04-24T00:16:50;99585.81;;;10.72;46.21
26487;BME280;14425;56.136;40.360;2023-04-24T00:19:16;99593.50;;;10.71;46.19
26487;BME280;14425;56.136;40.360;2023-04-24T00:21:42;99590.97;;;10.72;46.47
26487;BME280;14425;56.136;40.360;2023-04-24T00:24:07;99585.63;;;10.66;46.62
26487;BME280;14425;56.136;40.360;2023-04-24T00:26:36;99585.25;;;10.81;46.08
26487;BME280;14425;56.136;40.360;2023-04-24T00:29:01;99586.81;;;10.76;46.09
26487;BME280;14425;56.136;40.360;2023-04-24T00:31:27;99591.28;;;10.82;46.01
26487;BME280;14425;56.136;40.360;2023-04-24T00:33:56;99585.16;;;10.78;46.28
26487;BME280;14425;56.136;40.360;2023-04-24T00:36:21;99582.81;;;10.86;45.89
26487;BME280;14425;56.136;40.360;2023-04-24T00:38:47;99577.25;;;10.73;46.20
26487;BME280;14425;56.136;40.360;2023-04-24T00:41:12;99587.81;;;10.81;46.16
26487;BME280;14425;56.136;40.360;2023-04-24T00:43:38;99588.47;;;10.74;46.03
26487;BME280;14425;56.136;40.360;2023-04-24T00:46:04;99582.13;;;10.64;46.52
26487;BME280;14425;56.136;40.360;2023-04-24T00:48:31;99584.56;;;10.61;46.51
26487;BME280;14425;56.136;40.360;2023-04-24T00:50:57;99582.81;;;10.60;46.37
26487;BME280;14425;56.136;40.360;2023-04-24T00:53:23;99579.94;;;10.77;45.80
26487;BME280;14425;56.136;40.360;2023-04-24T00:55:49;99578.63;;;10.64;46.42
26487;BME280;14425;56.136;40.360;2023-04-24T00:58:15;99581.25;;;10.65;46.66
26487;BME280;14425;56.136;40.360;2023-04-24T01:00:41;99576.78;;;10.60;46.03
26487;BME280;14425;56.136;40.360;2023-04-24T01:03:07;99580.91;;;10.54;46.71
26487;BME280;14425;56.136;40.360;2023-04-24T01:05:32;99583.69;;;10.61;46.18
26487;BME280;14425;56.136;40.360;2023-04-24T01:07:58;99580.50;;;10.68;45.75
26487;BME280;14425;56.136;40.360;2023-04-24T01:10:27;99590.50;;;10.59;45.99
26487;BME280;14425;56.136;40.360;2023-04-24T01:12:53;99582.47;;;10.49;46.68
26487;BME280;14425;56.136;40.360;2023-04-24T01:15:18;99587.06;;;10.58;46.03
26487;BME280;14425;56.136;40.360;2023-04-24T01:17:44;99587.84;;;10.57;46.33
26487;BME280;14425;56.136;40.360;2023-04-24T01:20:10;99584.97;;;10.48;46.16
26487;BME280;14425;56.136;40.360;2023-04-24T01:22:36;99587.44;;;10.45;46.64
26487;BME280;14425;56.136;40.360;2023-04-24T01:25:03;99584.59;;;10.37;46.61
26487;BME280;14425;56.136;40.360;2023-04-24T01:27:30;99581.03;;;10.33;46.97
26487;BME280;14425;56.136;40.360;2023-04-24T01:29:55;99574.94;;;10.31;46.78
26487;BME280;14425;56.136;40.360;2023-04-24T01:32:21;99569.75;;;10.31;47.19
26487;BME280;14425;56.136;40.360;2023-04-24T01:34:48;99570.53;;;10.29;47.23
26487;BME280;14425;56.136;40.360;2023-04-24T01:37:13;99579.75;;;10.22;47.13
26487;BME280;14425;56.136;40.360;2023-04-24T01:39:39;99582.06;;;10.14;48.01
26487;BME280;14425;56.136;40.360;2023-04-24T01:42:05;99579.25;;;10.08;48.06
26487;BME280;14425;56.136;40.360;2023-04-24T01:44:31;99581.88;;;10.10;47.98
26487;BME280;14425;56.136;40.360;2023-04-24T01:46:57;99583.19;;;9.98;48.72
26487;BME280;14425;56.136;40.360;2023-04-24T01:49:22;99587.41;;;9.96;48.37
26487;BME280;14425;56.136;40.360;2023-04-24T01:51:49;99587.59;;;10.01;48.59
26487;BME280;14425;56.136;40.360;2023-04-24T01:54:14;99587.47;;;9.98;48.45
26487;BME280;14425;56.136;40.360;2023-04-24T01:56:41;99587.31;;;9.93;48.88
26487;BME280;14425;56.136;40.360;2023-04-24T01:59:10;99582.22;;;9.95;48.96
26487;BME280;14425;56.136;40.360;2023-04-24T02:01:36;99583.13;;;9.97;48.39
26487;BME280;14425;56.136;40.360;2023-04-24T02:04:03;99581.41;;;9.97;48.40
26487;BME280;14425;56.136;40.360;2023-04-24T02:06:29;99591.09;;;10.03;48.70
26487;BME280;14425;56.136;40.360;2023-04-24T02:08:58;99577.91;;;9.95;48.88
26487;BME280;14425;56.136;40.360;2023-04-24T02:11:23;99586.44;;;9.93;48.95
26487;BME280;14425;56.136;40.360;2023-04-24T02:13:49;99586.31;;;9.90;48.86
26487;BME280;14425;56.136;40.360;2023-04-24T02:16:15;99582.31;;;9.98;49.10
26487;BME280;14425;56.136;40.360;2023-04-24T02:19:02;99575.34;;;9.95;48.79
26487;BME280;14425;56.136;40.360;2023-04-24T02:21:27;99577.69;;;9.89;49.23
26487;BME280;14425;56.136;40.360;2023-04-24T02:23:54;99584.72;;;9.93;49.34
26487;BME280;14425;56.136;40.360;2023-04-24T02:26:19;99590.00;;;9.96;48.89
26487;BME280;14425;56.136;40.360;2023-04-24T02:28:45;99584.97;;;9.99;49.42
26487;BME280;14425;56.136;40.360;2023-04-24T02:31:10;99593.50;;;9.98;49.13
26487;BME280;14425;56.136;40.360;2023-04-24T02:33:36;99589.81;;;9.92;49.57
26487;BME280;14425;56.136;40.360;2023-04-24T02:36:02;99591.66;;;9.96;49.34
26487;BME280;14425;56.136;40.360;2023-04-24T02:38:29;99599.19;;;9.90;49.62
26487;BME280;14425;56.136;40.360;2023-04-24T02:40:54;99593.25;;;9.92;49.61
26487;BME280;14425;56.136;40.360;2023-04-24T02:43:20;99591.66;;;9.94;49.69
26487;BME280;14425;56.136;40.360;2023-04-24T02:45:46;99599.38;;;9.94;49.76
26487;BME280;14425;56.136;40.360;2023-04-24T02:48:11;99603.56;;;9.92;49.62
26487;BME280;14425;56.136;40.360;2023-04-24T02:50:37;99607.19;;;9.97;49.44
26487;BME280;14425;56.136;40.360;2023-04-24T02:53:02;99603.81;;;9.98;49.59
26487;BME280;14425;56.136;40.360;2023-04-24T02:55:28;99600.50;;;10.03;49.28
26487;BME280;14425;56.136;40.360;2023-04-24T02:57:54;99604.16;;;10.08;49.59
26487;BME280;14425;56.136;40.360;2023-04-24T03:00:20;99603.50;;;10.13;49.19
26487;BME280;14425;56.136;40.360;2023-04-24T03:02:46;99610.41;;;10.14;48.99
26487;BME280;14425;56.136;40.360;2023-04-24T03:05:11;99609.97;;;10.26;48.50
26487;BME280;14425;56.136;40.360;2023-04-24T03:07:39;99613.03;;;10.16;48.43
26487;BME280;14425;56.136;40.360;2023-04-24T03:10:06;99618.78;;;10.09;49.14
26487;BME280;14425;56.136;40.360;2023-04-24T03:12:32;99610.34;;;10.13;48.92
26487;BME280;14425;56.136;40.360;2023-04-24T03:14:57;99614.72;;;10.15;49.25
26487;BME280;14425;56.136;40.360;2023-04-24T03:17:23;99622.56;;;10.18;49.27
26487;BME280;14425;56.136;40.360;2023-04-24T03:19:48;99609.25;;;10.30;48.94
26487;BME280;14425;56.136;40.360;2023-04-24T03:22:14;99610.66;;;10.22;49.09
26487;BME280;14425;56.136;40.360;2023-04-24T03:24:39;99614.16;;;10.24;49.05
26487;BME280;14425;56.136;40.360;2023-04-24T03:27:05;99618.47;;;10.24;49.02
26487;BME280;14425;56.136;40.360;2023-04-24T03:29:31;99611.44;;;10.20;49.63
26487;BME280;14425;56.136;40.360;2023-04-24T03:31:56;99620.16;;;10.23;49.29
26487;BME280;14425;56.136;40.360;2023-04-24T03:34:22;99624.22;;;10.16;49.99
26487;BME280;14425;56.136;40.360;2023-04-24T03:36:47;99606.50;;;10.26;49.02
26487;BME280;14425;56.136;40.360;2023-04-24T03:39:13;99616.44;;;10.38;48.62
26487;BME280;14425;56.136;40.360;2023-04-24T03:41:38;99611.53;;;10.45;48.71
26487;BME280;14425;56.136;40.360;2023-04-24T03:44:04;99630.66;;;10.52;48.44
26487;BME280;14425;56.136;40.360;2023-04-24T03:46:30;99624.59;;;10.50;48.38
26487;BME280;14425;56.136;40.360;2023-04-24T03:48:56;99624.03;;;10.59;48.37
26487;BME280;14425;56.136;40.360;2023-04-24T03:51:21;99636.28;;;10.64;48.35
26487;BME280;14425;56.136;40.360;2023-04-24T03:53:48;99637.31;;;10.69;48.01
26487;BME280;14425;56.136;40.360;2023-04-24T03:56:14;99633.94;;;10.72;48.01
26487;BME280;14425;56.136;40.360;2023-04-24T03:58:40;99640.50;;;10.88;47.66
26487;BME280;14425;56.136;40.360;2023-04-24T04:01:06;99644.75;;;10.86;47.63
26487;BME280;14425;56.136;40.360;2023-04-24T04:03:32;99636.59;;;10.99;47.84
26487;BME280;14425;56.136;40.360;2023-04-24T04:05:57;99636.72;;;11.04;47.48
26487;BME280;14425;56.136;40.360;2023-04-24T04:08:23;99636.41;;;11.20;46.90
26487;BME280;14425;56.136;40.360;2023-04-24T04:10:48;99639.25;;;11.28;47.35
26487;BME280;14425;56.136;40.360;2023-04-24T04:13:14;99643.94;;;11.40;46.31
26487;BME280;14425;56.136;40.360;2023-04-24T04:15:40;99639.81;;;11.46;46.39
26487;BME280;14425;56.136;40.360;2023-04-24T04:18:05;99645.34;;;11.57;46.35
26487;BME280;14425;56.136;40.360;2023-04-24T04:20:31;99650.72;;;11.65;45.97
26487;BME280;14425;56.136;40.360;2023-04-24T04:22:57;99647.94;;;11.57;46.50
26487;BME280;14425;56.136;40.360;2023-04-24T04:25:22;99645.81;;;11.73;45.84
26487;BME280;14425;56.136;40.360;2023-04-24T04:27:48;99647.88;;;11.84;45.39
26487;BME280;14425;56.136;40.360;2023-04-24T04:30:14;99652.44;;;11.92;45.13
26487;BME280;14425;56.136;40.360;2023-04-24T04:32:40;99649.47;;;12.08;45.43
26487;BME280;14425;56.136;40.360;2023-04-24T04:35:06;99638.50;;;12.15;44.92
26487;BME280;14425;56.136;40.360;2023-04-24T04:37:35;99646.56;;;12.26;44.82
26487;BME280;14425;56.136;40.360;2023-04-24T04:40:01;99652.50;;;12.54;44.40
26487;BME280;14425;56.136;40.360;2023-04-24T04:42:32;99647.47;;;12.59;44.20
26487;BME280;14425;56.136;40.360;2023-04-24T04:44:59;99645.47;;;12.50;44.65
26487;BME280;14425;56.136;40.360;2023-04-24T04:47:26;99653.38;;;12.54;44.44
26487;BME280;14425;56.136;40.360;2023-04-24T04:49:52;99653.78;;;12.70;44.34
26487;BME280;14425;56.136;40.360;2023-04-24T04:52:18;99653.47;;;12.91;43.90
26487;BME280;14425;56.136;40.360;2023-04-24T04:54:44;99652.09;;;13.04;44.18
26487;BME280;14425;56.136;40.360;2023-04-24T04:57:10;99656.66;;;13.14;43.64
26487;BME280;14425;56.136;40.360;2023-04-24T04:59:35;99658.25;;;13.09;43.28
26487;BME280;14425;56.136;40.360;2023-04-24T05:02:02;99653.41;;;13.23;43.01
26487;BME280;14425;56.136;40.360;2023-04-24T05:04:28;99661.56;;;13.37;42.76
26487;BME280;14425;56.136;40.360;2023-04-24T05:06:53;99658.25;;;13.42;42.56
26487;BME280;14425;56.136;40.360;2023-04-24T05:09:19;99663.63;;;13.50;42.15
26487;BME280;14425;56.136;40.360;2023-04-24T05:11:45;99661.31;;;13.62;41.77
26487;BME280;14425;56.136;40.360;2023-04-24T05:14:10;99660.16;;;13.88;41.58
26487;BME280;14425;56.136;40.360;2023-04-24T05:16:38;99667.31;;;13.98;41.32
26487;BME280;14425;56.136;40.360;2023-04-24T05:19:04;99666.88;;;14.19;41.02
26487;BME280;14425;56.136;40.360;2023-04-24T05:21:29;99660.94;;;14.23;40.56
26487;BME280;14425;56.136;40.360;2023-04-24T05:23:56;99668.22;;;14.41;40.12
26487;BME280;14425;56.136;40.360;2023-04-24T05:26:21;99666.56;;;14.45;39.85
26487;BME280;14425;56.136;40.360;2023-04-24T05:28:48;99666.94;;;14.63;39.57
26487;BME280;14425;56.136;40.360;2023-04-24T05:31:13;99665.41;;;14.73;39.29
26487;BME280;14425;56.136;40.360;2023-04-24T05:33:39;99663.69;;;14.75;39.36
26487;BME280;14425;56.136;40.360;2023-04-24T05:36:06;99671.88;;;14.96;38.59
26487;BME280;14425;56.136;40.360;2023-04-24T05:38:31;99655.75;;;15.14;38.73
26487;BME280;14425;56.136;40.360;2023-04-24T05:40:57;99664.38;;;15.13;38.84
26487;BME280;14425;56.136;40.360;2023-04-24T05:43:22;99658.16;;;15.56;38.64
26487;BME280;14425;56.136;40.360;2023-04-24T05:45:48;99655.75;;;16.31;38.13
26487;BME280;14425;56.136;40.360;2023-04-24T05:48:14;99652.09;;;16.91;36.58
26487;BME280;14425;56.136;40.360;2023-04-24T05:50:39;99666.41;;;17.40;35.75
26487;BME280;14425;56.136;40.360;2023-04-24T05:53:05;99664.44;;;18.40;35.58
26487;BME280;14425;56.136;40.360;2023-04-24T05:55:32;99659.38;;;18.91;34.61
26487;BME280;14425;56.136;40.360;2023-04-24T05:57:58;99661.03;;;18.58;33.12
26487;BME280;14425;56.136;40.360;2023-04-24T06:00:25;99663.69;;;18.82;33.38
26487;BME280;14425;56.136;40.360;2023-04-24T06:02:51;99660.28;;;19.20;31.77
26487;BME280;14425;56.136;40.360;2023-04-24T06:05:18;99662.81;;;18.80;32.92
26487;BME280;14425;56.136;40.360;2023-04-24T06:07:43;99667.22;;;18.94;31.69
26487;BME280;14425;56.136;40.360;2023-04-24T06:10:10;99657.56;;;18.67;32.34
26487;BME280;14425;56.136;40.360;2023-04-24T06:12:35;99662.00;;;18.88;32.11
26487;BME280;14425;56.136;40.360;2023-04-24T06:15:02;99655.06;;;19.57;31.97
26487;BME280;14425;56.136;40.360;2023-04-24T06:17:30;99650.66;;;19.73;31.39
26487;BME280;14425;56.136;40.360;2023-04-24T06:19:56;99649.72;;;20.10;31.56
26487;BME280;14425;56.136;40.360;2023-04-24T06:22:21;99654.16;;;19.77;30.35
26487;BME280;14425;56.136;40.360;2023-04-24T06:24:47;99655.91;;;19.63;30.39
26487;BME280;14425;56.136;40.360;2023-04-24T06:27:14;99659.41;;;19.40;30.93
26487;BME280;14425;56.136;40.360;2023-04-24T06:29:39;99657.66;;;19.76;30.43
26487;BME280;14425;56.136;40.360;2023-04-24T06:32:05;99666.34;;;19.90;30.58
26487;BME280;14425;56.136;40.360;2023-04-24T06:34:30;99663.75;;;19.84;30.25
26487;BME280;14425;56.136;40.360;2023-04-24T06:36:58;99669.00;;;19.63;30.10
26487;BME280;14425;56.136;40.360;2023-04-24T06:39:23;99669.84;;;19.57;30.76
26487;BME280;14425;56.136;40.360;2023-04-24T06:41:49;99669.84;;;19.88;30.30
26487;BME280;14425;56.136;40.360;2023-04-24T06:44:15;99663.75;;;19.87;30.08
26487;BME280;14425;56.136;40.360;2023-04-24T06:46:41;99666.38;;;19.78;30.02
26487;BME280;14425;56.136;40.360;2023-04-24T06:49:06;99666.38;;;19.47;30.54
26487;BME280;14425;56.136;40.360;2023-04-24T06:51:32;99665.53;;;19.81;29.79
26487;BME280;14425;56.136;40.360;2023-04-24T06:53:58;99662.72;;;20.41;29.71
26487;BME280;14425;56.136;40.360;2023-04-24T06:56:24;99670.75;;;19.78;29.57
26487;BME280;14425;56.136;40.360;2023-04-24T06:58:50;99660.84;;;20.60;28.99
26487;BME280;14425;56.136;40.360;2023-04-24T07:01:16;99678.28;;;20.75;29.14
26487;BME280;14425;56.136;40.360;2023-04-24T07:03:42;99672.09;;;20.86;28.77
26487;BME280;14425;56.136;40.360;2023-04-24T07:06:09;99664.28;;;20.82;28.59
26487;BME280;14425;56.136;40.360;2023-04-24T07:08:36;99663.31;;;20.97;29.00
26487;BME280;14425;56.136;40.360;2023-04-24T07:11:02;99663.97;;;21.27;28.35
26487;BME280;14425;56.136;40.360;2023-04-24T07:13:28;99661.84;;;21.72;28.13
26487;BME280;14425;56.136;40.360;2023-04-24T07:15:54;99660.00;;;21.80;27.38
26487;BME280;14425;56.136;40.360;2023-04-24T07:18:21;99672.22;;;21.83;27.65
26487;BME280;14425;56.136;40.360;2023-04-24T07:20:47;99670.84;;;21.40;27.78
26487;BME280;14425;56.136;40.360;2023-04-24T07:23:13;99679.22;;;21.82;27.69
26487;BME280;14425;56.136;40.360;2023-04-24T07:25:39;99686.53;;;21.41;27.54
26487;BME280;14425;56.136;40.360;2023-04-24T07:28:04;99665.47;;;21.60;27.44
26487;BME280;14425;56.136;40.360;2023-04-24T07:30:31;99671.50;;;21.68;28.11
26487;BME280;14425;56.136;40.360;2023-04-24T07:32:58;99661.16;;;22.35;26.86
26487;BME280;14425;56.136;40.360;2023-04-24T07:35:24;99667.94;;;21.75;26.82
26487;BME280;14425;56.136;40.360;2023-04-24T07:37:52;99667.81;;;21.86;25.90
26487;BME280;14425;56.136;40.360;2023-04-24T07:40:18;99665.94;;;22.70;25.50
26487;BME280;14425;56.136;40.360;2023-04-24T07:42:45;99657.59;;;23.57;25.35
26487;BME280;14425;56.136;40.360;2023-04-24T07:45:14;99648.97;;;22.29;26.01
26487;BME280;14425;56.136;40.360;2023-04-24T07:47:41;99660.66;;;22.01;26.15
26487;BME280;14425;56.136;40.360;2023-04-24T07:50:09;99655.28;;;22.81;25.32
26487;BME280;14425;56.136;40.360;2023-04-24T07:52:35;99655.31;;;23.36;25.24
26487;BME280;14425;56.136;40.360;2023-04-24T07:55:01;99668.41;;;22.83;23.84
26487;BME280;14425;56.136;40.360;2023-04-24T07:57:31;99655.38;;;22.04;24.35
26487;BME280;14425;56.136;40.360;2023-04-24T07:59:57;99655.94;;;22.94;23.85
26487;BME280;14425;56.136;40.360;2023-04-24T08:02:22;99667.94;;;22.55;24.11
26487;BME280;14425;56.136;40.360;2023-04-24T08:04:55;99646.25;;;22.36;23.42
26487;BME280;14425;56.136;40.360;2023-04-24T08:07:21;99653.53;;;22.80;23.51
26487;BME280;14425;56.136;40.360;2023-04-24T08:09:47;99655.81;;;23.03;23.31
26487;BME280;14425;56.136;40.360;2023-04-24T08:12:13;99642.19;;;22.78;23.88
26487;BME280;14425;56.136;40.360;2023-04-24T08:14:39;99642.16;;;22.11;23.74
26487;BME280;14425;56.136;40.360;2023-04-24T08:17:04;99649.28;;;20.98;24.53
26487;BME280;14425;56.136;40.360;2023-04-24T08:19:30;99641.56;;;20.79;25.57
26487;BME280;14425;56.136;40.360;2023-04-24T08:21:55;99654.63;;;21.92;24.50
26487;BME280;14425;56.136;40.360;2023-04-24T08:24:22;99641.81;;;23.03;23.71
26487;BME280;14425;56.136;40.360;2023-04-24T08:26:48;99633.84;;;23.09;23.44
26487;BME280;14425;56.136;40.360;2023-04-24T08:29:17;99633.25;;;22.88;23.43
26487;BME280;14425;56.136;40.360;2023-04-24T08:31:42;99632.28;;;22.96;23.67
26487;BME280;14425;56.136;40.360;2023-04-24T08:34:09;99649.59;;;23.12;22.39
26487;BME280;14425;56.136;40.360;2023-04-24T08:36:36;99611.47;;;23.86;22.36
26487;BME280;14425;56.136;40.360;2023-04-24T08:39:02;99636.31;;;22.58;23.56
26487;BME280;14425;56.136;40.360;2023-04-24T08:41:27;99619.75;;;23.13;22.89
26487;BME280;14425;56.136;40.360;2023-04-24T08:43:53;99620.25;;;22.79;22.79
26487;BME280;14425;56.136;40.360;2023-04-24T08:46:20;99608.44;;;24.06;22.37
26487;BME280;14425;56.136;40.360;2023-04-24T08:48:46;99617.09;;;24.13;22.12
26487;BME280;14425;56.136;40.360;2023-04-24T08:51:12;99600.44;;;24.11;22.23
26487;BME280;14425;56.136;40.360;2023-04-24T08:53:38;99607.16;;;23.80;22.04
26487;BME280;14425;56.136;40.360;2023-04-24T08:56:03;99598.75;;;24.07;22.20
26487;BME280;14425;56.136;40.360;2023-04-24T08:58:30;99596.09;;;24.08;21.74
26487;BME280;14425;56.136;40.360;2023-04-24T09:00:56;99609.66;;;22.84;22.52
26487;BME280;14425;56.136;40.360;2023-04-24T09:03:23;99599.59;;;23.12;22.69
26487;BME280;14425;56.136;40.360;2023-04-24T09:05:50;99587.31;;;23.63;22.58
26487;BME280;14425;56.136;40.360;2023-04-24T09:08:19;99597.97;;;24.03;22.04
26487;BME280;14425;56.136;40.360;2023-04-24T09:10:46;99593.13;;;24.24;22.26
26487;BME280;14425;56.136;40.360;2023-04-24T09:13:11;99593.56;;;23.57;22.31
26487;BME280;14425;56.136;40.360;2023-04-24T09:15:38;99595.22;;;24.09;21.57
26487;BME280;14425;56.136;40.360;2023-04-24T09:18:04;99584.13;;;24.35;21.73
26487;BME280;14425;56.136;40.360;2023-04-24T09:20:31;99579.81;;;25.06;21.64
26487;BME280;14425;56.136;40.360;2023-04-24T09:22:57;99571.53;;;25.22;21.16
26487;BME280;14425;56.136;40.360;2023-04-24T09:25:30;99572.09;;;25.35;21.53
26487;BME280;14425;56.136;40.360;2023-04-24T09:28:00;99578.06;;;24.30;22.08
26487;BME280;14425;56.136;40.360;2023-04-24T09:30:25;99577.44;;;24.19;21.61
26487;BME280;14425;56.136;40.360;2023-04-24T09:33:09;99564.22;;;24.22;22.43
26487;BME280;14425;56.136;40.360;2023-04-24T09:35:35;99572.56;;;25.16;21.15
26487;BME280;14425;56.136;40.360;2023-04-24T09:38:01;99568.63;;;24.20;21.29
26487;BME280;14425;56.136;40.360;2023-04-24T09:40:26;99558.53;;;24.78;20.75
26487;BME280;14425;56.136;40.360;2023-04-24T09:42:56;99559.97;;;24.56;21.71
26487;BME280;14425;56.136;40.360;2023-04-24T09:45:37;99568.66;;;24.95;20.80
26487;BME280;14425;56.136;40.360;2023-04-24T09:48:03;99573.13;;;25.29;21.31
26487;BME280;14425;56.136;40.360;2023-04-24T09:50:30;99561.44;;;26.04;20.66
26487;BME280;14425;56.136;40.360;2023-04-24T09:53:03;99554.47;;;25.68;20.69
26487;BME280;14425;56.136;40.360;2023-04-24T09:55:29;99556.66;;;24.05;22.04
26487;BME280;14425;56.136;40.360;2023-04-24T09:57:59;99557.75;;;22.39;23.03
26487;BME280;14425;56.136;40.360;2023-04-24T10:00:32;99558.84;;;22.85;23.78
26487;BME280;14425;56.136;40.360;2023-04-24T10:03:00;99544.03;;;25.32;21.54
26487;BME280;14425;56.136;40.360;2023-04-24T10:05:31;99543.53;;;25.82;20.62
26487;BME280;14425;56.136;40.360;2023-04-24T10:08:07;99538.00;;;26.49;20.24
26487;BME280;14425;56.136;40.360;2023-04-24T10:10:34;99533.78;;;26.44;20.18
26487;BME280;14425;56.136;40.360;2023-04-24T10:13:01;99541.75;;;25.51;20.65
26487;BME280;14425;56.136;40.360;2023-04-24T10:15:28;99545.00;;;23.72;21.44
26487;BME280;14425;56.136;40.360;2023-04-24T10:17:54;99551.06;;;24.97;20.81
26487;BME280;14425;56.136;40.360;2023-04-24T10:20:25;99553.59;;;25.36;20.61
26487;BME280;14425;56.136;40.360;2023-04-24T10:22:53;99542.81;;;24.74;20.73
26487;BME280;14425;56.136;40.360;2023-04-24T10:25:21;99532.31;;;25.42;20.30
26487;BME280;14425;56.136;40.360;2023-04-24T10:27:49;99515.97;;;25.28;20.27
26487;BME280;14425;56.136;40.360;2023-04-24T10:30:16;99523.19;;;26.15;19.98
26487;BME280;14425;56.136;40.360;2023-04-24T10:32:42;99513.38;;;26.76;19.44
26487;BME280;14425;56.136;40.360;2023-04-24T10:35:09;99502.53;;;26.28;19.56
26487;BME280;14425;56.136;40.360;2023-04-24T10:37:40;99523.66;;;26.00;20.02
26487;BME280;14425;56.136;40.360;2023-04-24T10:40:11;99518.69;;;25.88;20.63
26487;BME280;14425;56.136;40.360;2023-04-24T10:42:41;99509.75;;;26.51;20.46
26487;BME280;14425;56.136;40.360;2023-04-24T10:45:19;99502.19;;;26.67;19.75
26487;BME280;14425;56.136;40.360;2023-04-24T10:50:18;99515.81;;;26.27;20.20
26487;BME280;14425;56.136;40.360;2023-04-24T10:52:45;99501.91;;;26.48;20.66
26487;BME280;14425;56.136;40.360;2023-04-24T10:55:13;99513.09;;;25.69;20.14
26487;BME280;14425;56.136;40.360;2023-04-24T10:57:39;99519.69;;;25.54;19.86
26487;BME280;14425;56.136;40.360;2023-04-24T11:00:14;99508.69;;;25.69;20.30
26487;BME280;14425;56.136;40.360;2023-04-24T11:02:41;99519.44;;;26.23;19.19
26487;BME280;14425;56.136;40.360;2023-04-24T11:05:17;99515.06;;;25.62;19.82
26487;BME280;14425;56.136;40.360;2023-04-24T11:08:15;99502.81;;;24.17;20.67
26487;BME280;14425;56.136;40.360;2023-04-24T11:10:54;99515.94;;;25.30;19.87
26487;BME280;14425;56.136;40.360;2023-04-24T11:13:24;99504.25;;;24.69;20.59
26487;BME280;14425;56.136;40.360;2023-04-24T11:16:29;99503.00;;;26.13;19.25
26487;BME280;14425;56.136;40.360;2023-04-24T11:19:17;99494.25;;;24.84;19.94
26487;BME280;14425;56.136;40.360;2023-04-24T11:24:33;99489.50;;;26.22;19.11
26487;BME280;14425;56.136;40.360;2023-04-24T11:29:49;99473.50;;;26.82;18.77
26487;BME280;14425;56.136;40.360;2023-04-24T11:34:54;99461.66;;;26.12;18.29
26487;BME280;14425;56.136;40.360;2023-04-24T11:37:22;99476.97;;;25.39;19.75
26487;BME280;14425;56.136;40.360;2023-04-24T11:39:56;99460.34;;;25.67;19.67
26487;BME280;14425;56.136;40.360;2023-04-24T11:42:22;99460.66;;;25.85;19.56
26487;BME280;14425;56.136;40.360;2023-04-24T11:44:52;99468.56;;;25.86;19.54
26487;BME280;14425;56.136;40.360;2023-04-24T11:47:18;99441.38;;;26.39;19.34
26487;BME280;14425;56.136;40.360;2023-04-24T11:49:43;99455.22;;;25.61;19.07
26487;BME280;14425;56.136;40.360;2023-04-24T11:52:09;99445.78;;;26.12;19.31
26487;BME280;14425;56.136;40.360;2023-04-24T11:54:36;99454.78;;;26.33;19.16
26487;BME280;14425;56.136;40.360;2023-04-24T11:57:05;99446.88;;;26.05;18.42
26487;BME280;14425;56.136;40.360;2023-04-24T11:59:37;99450.53;;;25.71;18.97
26487;BME280;14425;56.136;40.360;2023-04-24T12:02:03;99447.63;;;25.80;19.26
26487;BME280;14425;56.136;40.360;2023-04-24T12:04:39;99448.94;;;25.65;19.43
26487;BME280;14425;56.136;40.360;2023-04-24T12:07:05;99438.72;;;25.21;19.42
26487;BME280;14425;56.136;40.360;2023-04-24T12:09:46;99443.69;;;25.34;18.90
26487;BME280;14425;56.136;40.360;2023-04-24T12:12:14;99434.03;;;25.00;18.96
26487;BME280;14425;56.136;40.360;2023-04-24T12:14:44;99436.03;;;26.14;18.88
26487;BME280;14425;56.136;40.360;2023-04-24T12:17:10;99418.41;;;26.41;18.75
26487;BME280;14425;56.136;40.360;2023-04-24T12:19:35;99418.78;;;26.30;19.07
26487;BME280;14425;56.136;40.360;2023-04-24T12:22:02;99437.75;;;25.87;18.68
26487;BME280;14425;56.136;40.360;2023-04-24T12:24:29;99427.66;;;25.40;18.89
26487;BME280;14425;56.136;40.360;2023-04-24T12:26:55;99426.28;;;24.61;18.65
26487;BME280;14425;56.136;40.360;2023-04-24T12:29:21;99427.78;;;23.97;19.47
26487;BME280;14425;56.136;40.360;2023-04-24T12:31:47;99421.88;;;24.61;18.94
26487;BME280;14425;56.136;40.360;2023-04-24T12:34:20;99420.47;;;25.75;18.35
26487;BME280;14425;56.136;40.360;2023-04-24T12:36:47;99412.34;;;24.56;19.08
26487;BME280;14425;56.136;40.360;2023-04-24T12:39:19;99415.69;;;25.28;18.68
26487;BME280;14425;56.136;40.360;2023-04-24T12:41:51;99422.59;;;25.34;18.82
26487;BME280;14425;56.136;40.360;2023-04-24T12:44:19;99419.06;;;25.63;18.79
26487;BME280;14425;56.136;40.360;2023-04-24T12:46:45;99412.84;;;25.66;19.09
26487;BME280;14425;56.136;40.360;2023-04-24T12:49:10;99419.38;;;25.82;18.63
26487;BME280;14425;56.136;40.360;2023-04-24T12:51:36;99425.22;;;25.63;19.03
26487;BME280;14425;56.136;40.360;2023-04-24T12:54:04;99414.38;;;25.10;18.36
26487;BME280;14425;56.136;40.360;2023-04-24T12:56:30;99411.00;;;25.68;18.69
26487;BME280;14425;56.136;40.360;2023-04-24T12:58:56;99415.38;;;25.39;18.02
26487;BME280;14425;56.136;40.360;2023-04-24T13:01:22;99406.16;;;23.82;19.33